sensor_id;sensor_type;location;lat;lon;timestamp;temperature;humidity
75217;HTU21D;63800;51.972;5.682;2023-03-03T00:01:06;2.67;89.95
75217;HTU21D;63800;51.972;5.682;2023-03-03T00:03:32;2.84;89.05
75217;HTU21D;63800;51.972;5.682;2023-03-03T00:05:58;2.68;90.94
75217;HTU21D;63800;51.972;5.682;2023-03-03T00:08:24;2.68;90.90
75217;HTU21D;63800;51.972;5.682;2023-03-03T00:10:50;2.78;89.41
75217;HTU21D;63800;51.972;5.682;2023-03-03T00:13:22;2.73;89.64
75217;HTU21D;63800;51.972;5.682;2023-03-03T00:15:48;2.69;90.23
75217;HTU21D;63800;51.972;5.682;2023-03-03T00:18:29;2.70;90.60
75217;HTU21D;63800;51.972;5.682;2023-03-03T00:20:57;2.71;90.50
75217;HTU21D;63800;51.972;5.682;2023-03-03T00:23:38;2.80;89.44
75217;HTU21D;63800;51.972;5.682;2023-03-03T00:26:33;2.68;89.95
75217;HTU21D;63800;51.972;5.682;2023-03-03T00:29:01;2.85;88.52
75217;HTU21D;63800;51.972;5.682;2023-03-03T00:31:33;2.72;88.44
75217;HTU21D;63800;51.972;5.682;2023-03-03T00:36:42;2.67;88.45
75217;HTU21D;63800;51.972;5.682;2023-03-03T00:39:18;2.71;89.07
75217;HTU21D;63800;51.972;5.682;2023-03-03T00:41:48;2.81;88.27
75217;HTU21D;63800;51.972;5.682;2023-03-03T00:46:55;2.61;90.09
75217;HTU21D;63800;51.972;5.682;2023-03-03T00:49:24;2.88;88.41
75217;HTU21D;63800;51.972;5.682;2023-03-03T00:51:51;2.82;88.53
75217;HTU21D;63800;51.972;5.682;2023-03-03T00:54:17;2.93;87.82
75217;HTU21D;63800;51.972;5.682;2023-03-03T00:56:43;2.90;87.84
75217;HTU21D;63800;51.972;5.682;2023-03-03T00:59:08;2.59;90.46
75217;HTU21D;63800;51.972;5.682;2023-03-03T01:01:34;2.54;90.59
75217;HTU21D;63800;51.972;5.682;2023-03-03T01:03:59;2.88;88.62
75217;HTU21D;63800;51.972;5.682;2023-03-03T01:06:25;2.70;89.53
75217;HTU21D;63800;51.972;5.682;2023-03-03T01:08:50;2.85;88.57
75217;HTU21D;63800;51.972;5.682;2023-03-03T01:11:20;2.62;90.18
75217;HTU21D;63800;51.972;5.682;2023-03-03T01:13:47;2.54;91.41
75217;HTU21D;63800;51.972;5.682;2023-03-03T01:16:13;2.50;91.34
75217;HTU21D;63800;51.972;5.682;2023-03-03T01:18:39;2.51;91.30
75217;HTU21D;63800;51.972;5.682;2023-03-03T01:21:06;2.49;91.26
75217;HTU21D;63800;51.972;5.682;2023-03-03T01:23:32;2.58;89.57
75217;HTU21D;63800;51.972;5.682;2023-03-03T01:25:58;2.56;90.44
75217;HTU21D;63800;51.972;5.682;2023-03-03T01:28:24;2.58;89.11
75217;HTU21D;63800;51.972;5.682;2023-03-03T01:30:49;2.52;89.84
75217;HTU21D;63800;51.972;5.682;2023-03-03T01:33:15;2.47;90.04
75217;HTU21D;63800;51.972;5.682;2023-03-03T01:35:50;2.46;90.51
75217;HTU21D;63800;51.972;5.682;2023-03-03T01:38:15;2.56;89.02
75217;HTU21D;63800;51.972;5.682;2023-03-03T01:40:41;2.51;89.86
75217;HTU21D;63800;51.972;5.682;2023-03-03T01:43:06;2.44;90.54
75217;HTU21D;63800;51.972;5.682;2023-03-03T01:46:20;2.51;90.44
75217;HTU21D;63800;51.972;5.682;2023-03-03T01:48:39;2.37;91.18
75217;HTU21D;63800;51.972;5.682;2023-03-03T01:51:13;2.52;89.81
75217;HTU21D;63800;51.972;5.682;2023-03-03T01:53:49;2.73;87.49
75217;HTU21D;63800;51.972;5.682;2023-03-03T01:56:15;2.50;88.71
75217;HTU21D;63800;51.972;5.682;2023-03-03T01:58:50;2.58;88.47
75217;HTU21D;63800;51.972;5.682;2023-03-03T02:01:20;2.50;88.51
75217;HTU21D;63800;51.972;5.682;2023-03-03T02:03:47;2.42;89.20
75217;HTU21D;63800;51.972;5.682;2023-03-03T02:06:15;2.47;88.71
75217;HTU21D;63800;51.972;5.682;2023-03-03T02:08:51;2.29;90.09
75217;HTU21D;63800;51.972;5.682;2023-03-03T02:11:20;2.57;88.18
75217;HTU21D;63800;51.972;5.682;2023-03-03T02:13:45;2.46;88.58
75217;HTU21D;63800;51.972;5.682;2023-03-03T02:16:11;2.42;89.14
75217;HTU21D;63800;51.972;5.682;2023-03-03T02:18:37;2.38;89.40
75217;HTU21D;63800;51.972;5.682;2023-03-03T02:21:06;2.36;89.90
75217;HTU21D;63800;51.972;5.682;2023-03-03T02:23:58;2.57;87.95
75217;HTU21D;63800;51.972;5.682;2023-03-03T02:26:29;2.37;89.37
75217;HTU21D;63800;51.972;5.682;2023-03-03T02:28:56;2.26;89.86
75217;HTU21D;63800;51.972;5.682;2023-03-03T02:31:24;2.32;89.86
75217;HTU21D;63800;51.972;5.682;2023-03-03T02:33:51;2.31;89.82
75217;HTU21D;63800;51.972;5.682;2023-03-03T02:36:22;2.43;88.76
75217;HTU21D;63800;51.972;5.682;2023-03-03T02:39:11;2.47;88.64
75217;HTU21D;63800;51.972;5.682;2023-03-03T02:44:27;2.53;88.79
75217;HTU21D;63800;51.972;5.682;2023-03-03T02:46:55;2.66;88.11
75217;HTU21D;63800;51.972;5.682;2023-03-03T02:49:32;2.36;90.14
75217;HTU21D;63800;51.972;5.682;2023-03-03T02:51:59;2.30;91.03
75217;HTU21D;63800;51.972;5.682;2023-03-03T02:54:26;2.57;88.08
75217;HTU21D;63800;51.972;5.682;2023-03-03T02:56:52;2.56;88.47
75217;HTU21D;63800;51.972;5.682;2023-03-03T02:59:18;2.38;89.93
75217;HTU21D;63800;51.972;5.682;2023-03-03T03:01:45;2.54;89.21
75217;HTU21D;63800;51.972;5.682;2023-03-03T03:04:15;2.53;88.57
75217;HTU21D;63800;51.972;5.682;2023-03-03T03:06:42;2.60;88.35
75217;HTU21D;63800;51.972;5.682;2023-03-03T03:09:08;2.64;87.93
75217;HTU21D;63800;51.972;5.682;2023-03-03T03:11:35;2.47;90.02
75217;HTU21D;63800;51.972;5.682;2023-03-03T03:14:02;2.65;88.80
75217;HTU21D;63800;51.972;5.682;2023-03-03T03:16:27;2.38;90.12
75217;HTU21D;63800;51.972;5.682;2023-03-03T03:18:53;2.59;89.92
75217;HTU21D;63800;51.972;5.682;2023-03-03T03:21:18;2.44;90.06
75217;HTU21D;63800;51.972;5.682;2023-03-03T03:23:44;2.31;90.71
75217;HTU21D;63800;51.972;5.682;2023-03-03T03:26:10;2.34;90.65
75217;HTU21D;63800;51.972;5.682;2023-03-03T03:28:36;2.36;91.56
75217;HTU21D;63800;51.972;5.682;2023-03-03T03:31:03;2.46;89.89
75217;HTU21D;63800;51.972;5.682;2023-03-03T03:33:29;2.38;90.92
75217;HTU21D;63800;51.972;5.682;2023-03-03T03:35:55;2.52;89.73
75217;HTU21D;63800;51.972;5.682;2023-03-03T03:38:22;2.39;90.89
75217;HTU21D;63800;51.972;5.682;2023-03-03T03:40:48;2.36;91.02
75217;HTU21D;63800;51.972;5.682;2023-03-03T03:43:13;2.38;91.04
75217;HTU21D;63800;51.972;5.682;2023-03-03T03:45:41;2.37;90.82
75217;HTU21D;63800;51.972;5.682;2023-03-03T03:48:07;2.38;90.89
75217;HTU21D;63800;51.972;5.682;2023-03-03T03:50:32;2.37;91.14
75217;HTU21D;63800;51.972;5.682;2023-03-03T03:52:58;2.36;91.15
75217;HTU21D;63800;51.972;5.682;2023-03-03T03:55:23;2.40;91.46
75217;HTU21D;63800;51.972;5.682;2023-03-03T03:57:49;2.43;91.31
75217;HTU21D;63800;51.972;5.682;2023-03-03T04:00:15;2.41;91.48
75217;HTU21D;63800;51.972;5.682;2023-03-03T04:02:40;2.68;89.09
75217;HTU21D;63800;51.972;5.682;2023-03-03T04:05:06;2.45;91.18
75217;HTU21D;63800;51.972;5.682;2023-03-03T04:07:32;2.35;91.13
75217;HTU21D;63800;51.972;5.682;2023-03-03T04:09:57;2.46;90.33
75217;HTU21D;63800;51.972;5.682;2023-03-03T04:12:23;2.41;91.11
75217;HTU21D;63800;51.972;5.682;2023-03-03T04:14:48;2.30;91.42
75217;HTU21D;63800;51.972;5.682;2023-03-03T04:17:21;2.31;91.66
75217;HTU21D;63800;51.972;5.682;2023-03-03T04:19:48;2.27;91.54
75217;HTU21D;63800;51.972;5.682;2023-03-03T04:22:16;2.46;90.18
75217;HTU21D;63800;51.972;5.682;2023-03-03T04:24:42;2.47;90.36
75217;HTU21D;63800;51.972;5.682;2023-03-03T04:27:07;2.35;90.65
75217;HTU21D;63800;51.972;5.682;2023-03-03T04:29:33;2.34;90.63
75217;HTU21D;63800;51.972;5.682;2023-03-03T04:31:59;2.64;88.59
75217;HTU21D;63800;51.972;5.682;2023-03-03T04:34:25;2.61;88.52
75217;HTU21D;63800;51.972;5.682;2023-03-03T04:36:50;2.36;90.71
75217;HTU21D;63800;51.972;5.682;2023-03-03T04:39:16;2.35;90.51
75217;HTU21D;63800;51.972;5.682;2023-03-03T04:41:41;2.44;89.39
75217;HTU21D;63800;51.972;5.682;2023-03-03T04:44:06;2.62;87.53
75217;HTU21D;63800;51.972;5.682;2023-03-03T04:46:32;2.47;88.39
75217;HTU21D;63800;51.972;5.682;2023-03-03T04:48:57;2.74;86.86
75217;HTU21D;63800;51.972;5.682;2023-03-03T04:51:23;2.60;87.77
75217;HTU21D;63800;51.972;5.682;2023-03-03T04:53:51;2.41;89.45
75217;HTU21D;63800;51.972;5.682;2023-03-03T04:56:16;2.57;87.99
75217;HTU21D;63800;51.972;5.682;2023-03-03T04:58:42;2.43;88.76
75217;HTU21D;63800;51.972;5.682;2023-03-03T05:01:11;2.68;87.54
75217;HTU21D;63800;51.972;5.682;2023-03-03T05:03:37;2.34;89.74
75217;HTU21D;63800;51.972;5.682;2023-03-03T05:06:03;2.46;88.81
75217;HTU21D;63800;51.972;5.682;2023-03-03T05:08:28;2.51;88.61
75217;HTU21D;63800;51.972;5.682;2023-03-03T05:10:54;2.82;86.60
75217;HTU21D;63800;51.972;5.682;2023-03-03T05:13:19;2.50;88.52
75217;HTU21D;63800;51.972;5.682;2023-03-03T05:15:53;2.42;89.23
75217;HTU21D;63800;51.972;5.682;2023-03-03T05:18:23;2.54;88.49
75217;HTU21D;63800;51.972;5.682;2023-03-03T05:20:49;2.45;89.27
75217;HTU21D;63800;51.972;5.682;2023-03-03T05:23:16;2.39;89.32
75217;HTU21D;63800;51.972;5.682;2023-03-03T05:25:41;2.31;90.06
75217;HTU21D;63800;51.972;5.682;2023-03-03T05:28:09;2.62;88.41
75217;HTU21D;63800;51.972;5.682;2023-03-03T05:30:35;2.40;89.60
75217;HTU21D;63800;51.972;5.682;2023-03-03T05:33:01;2.35;89.86
75217;HTU21D;63800;51.972;5.682;2023-03-03T05:35:27;2.22;90.50
75217;HTU21D;63800;51.972;5.682;2023-03-03T05:37:53;2.43;89.80
75217;HTU21D;63800;51.972;5.682;2023-03-03T05:40:19;2.26;90.55
75217;HTU21D;63800;51.972;5.682;2023-03-03T05:42:44;2.19;91.37
75217;HTU21D;63800;51.972;5.682;2023-03-03T05:45:11;2.39;89.59
75217;HTU21D;63800;51.972;5.682;2023-03-03T05:47:37;2.30;90.12
75217;HTU21D;63800;51.972;5.682;2023-03-03T05:50:03;2.25;91.04
75217;HTU21D;63800;51.972;5.682;2023-03-03T05:52:28;2.16;91.66
75217;HTU21D;63800;51.972;5.682;2023-03-03T05:54:54;2.23;91.14
75217;HTU21D;63800;51.972;5.682;2023-03-03T05:57:19;2.03;91.73
75217;HTU21D;63800;51.972;5.682;2023-03-03T05:59:45;2.31;89.79
75217;HTU21D;63800;51.972;5.682;2023-03-03T06:02:10;2.16;91.05
75217;HTU21D;63800;51.972;5.682;2023-03-03T06:04:35;2.36;90.44
75217;HTU21D;63800;51.972;5.682;2023-03-03T06:07:01;2.25;90.78
75217;HTU21D;63800;51.972;5.682;2023-03-03T06:09:27;2.12;91.56
75217;HTU21D;63800;51.972;5.682;2023-03-03T06:11:52;2.15;91.43
75217;HTU21D;63800;51.972;5.682;2023-03-03T06:14:18;2.11;92.34
75217;HTU21D;63800;51.972;5.682;2023-03-03T06:16:45;2.16;91.04
75217;HTU21D;63800;51.972;5.682;2023-03-03T06:19:11;2.53;88.93
75217;HTU21D;63800;51.972;5.682;2023-03-03T06:21:37;2.25;90.66
75217;HTU21D;63800;51.972;5.682;2023-03-03T06:24:02;2.30;90.02
75217;HTU21D;63800;51.972;5.682;2023-03-03T06:26:30;2.15;91.37
75217;HTU21D;63800;51.972;5.682;2023-03-03T06:28:55;2.34;90.35
75217;HTU21D;63800;51.972;5.682;2023-03-03T06:31:21;2.30;90.60
75217;HTU21D;63800;51.972;5.682;2023-03-03T06:33:46;2.20;91.52
75217;HTU21D;63800;51.972;5.682;2023-03-03T06:36:12;2.17;91.60
75217;HTU21D;63800;51.972;5.682;2023-03-03T06:38:37;2.42;89.18
75217;HTU21D;63800;51.972;5.682;2023-03-03T06:41:03;2.15;91.21
75217;HTU21D;63800;51.972;5.682;2023-03-03T06:43:32;2.19;91.66
75217;HTU21D;63800;51.972;5.682;2023-03-03T06:45:57;2.15;92.05
75217;HTU21D;63800;51.972;5.682;2023-03-03T06:48:23;2.21;92.11
75217;HTU21D;63800;51.972;5.682;2023-03-03T06:50:49;2.38;90.46
75217;HTU21D;63800;51.972;5.682;2023-03-03T06:53:17;2.29;90.72
75217;HTU21D;63800;51.972;5.682;2023-03-03T06:55:44;2.36;90.63
75217;HTU21D;63800;51.972;5.682;2023-03-03T06:58:15;2.40;90.87
75217;HTU21D;63800;51.972;5.682;2023-03-03T07:00:43;2.38;90.98
75217;HTU21D;63800;51.972;5.682;2023-03-03T07:03:22;2.47;90.89
75217;HTU21D;63800;51.972;5.682;2023-03-03T07:05:48;2.55;90.44
75217;HTU21D;63800;51.972;5.682;2023-03-03T07:08:17;2.34;91.93
75217;HTU21D;63800;51.972;5.682;2023-03-03T07:10:43;2.54;90.74
75217;HTU21D;63800;51.972;5.682;2023-03-03T07:13:24;2.61;89.96
75217;HTU21D;63800;51.972;5.682;2023-03-03T07:15:51;2.49;91.37
75217;HTU21D;63800;51.972;5.682;2023-03-03T07:21:21;2.87;89.27
75217;HTU21D;63800;51.972;5.682;2023-03-03T07:23:49;2.59;91.37
75217;HTU21D;63800;51.972;5.682;2023-03-03T07:26:20;2.45;92.56
75217;HTU21D;63800;51.972;5.682;2023-03-03T07:28:57;2.84;90.03
75217;HTU21D;63800;51.972;5.682;2023-03-03T07:33:53;2.86;90.06
75217;HTU21D;63800;51.972;5.682;2023-03-03T07:36:29;2.74;90.87
75217;HTU21D;63800;51.972;5.682;2023-03-03T07:38:59;2.79;91.69
75217;HTU21D;63800;51.972;5.682;2023-03-03T07:41:26;2.87;90.98
75217;HTU21D;63800;51.972;5.682;2023-03-03T07:44:03;2.73;91.95
75217;HTU21D;63800;51.972;5.682;2023-03-03T07:46:46;2.84;91.12
75217;HTU21D;63800;51.972;5.682;2023-03-03T07:49:35;3.15;89.55
75217;HTU21D;63800;51.972;5.682;2023-03-03T07:55:01;3.21;89.61
75217;HTU21D;63800;51.972;5.682;2023-03-03T07:57:44;3.03;92.22
75217;HTU21D;63800;51.972;5.682;2023-03-03T08:08:24;3.45;89.15
75217;HTU21D;63800;51.972;5.682;2023-03-03T08:10:48;3.36;89.26
75217;HTU21D;63800;51.972;5.682;2023-03-03T08:13:21;3.44;88.80
75217;HTU21D;63800;51.972;5.682;2023-03-03T08:15:53;3.38;89.37
75217;HTU21D;63800;51.972;5.682;2023-03-03T08:18:29;3.48;88.51
75217;HTU21D;63800;51.972;5.682;2023-03-03T08:21:12;3.57;88.18
75217;HTU21D;63800;51.972;5.682;2023-03-03T08:23:38;3.50;88.51
75217;HTU21D;63800;51.972;5.682;2023-03-03T08:26:04;3.56;88.62
75217;HTU21D;63800;51.972;5.682;2023-03-03T08:28:30;3.68;87.03
75217;HTU21D;63800;51.972;5.682;2023-03-03T08:30:56;3.60;87.34
75217;HTU21D;63800;51.972;5.682;2023-03-03T08:33:21;3.61;88.02
75217;HTU21D;63800;51.972;5.682;2023-03-03T08:35:47;3.78;87.12
75217;HTU21D;63800;51.972;5.682;2023-03-03T08:38:14;3.84;86.93
75217;HTU21D;63800;51.972;5.682;2023-03-03T08:40:41;3.83;86.06
75217;HTU21D;63800;51.972;5.682;2023-03-03T08:43:07;3.77;86.99
75217;HTU21D;63800;51.972;5.682;2023-03-03T08:45:33;3.89;86.20
75217;HTU21D;63800;51.972;5.682;2023-03-03T08:47:59;3.92;86.05
75217;HTU21D;63800;51.972;5.682;2023-03-03T08:50:27;3.98;85.29
75217;HTU21D;63800;51.972;5.682;2023-03-03T08:52:53;3.98;85.67
75217;HTU21D;63800;51.972;5.682;2023-03-03T08:55:19;4.08;85.39
75217;HTU21D;63800;51.972;5.682;2023-03-03T08:57:45;4.04;84.12
75217;HTU21D;63800;51.972;5.682;2023-03-03T09:00:13;4.04;83.99
75217;HTU21D;63800;51.972;5.682;2023-03-03T09:02:41;4.02;83.52
75217;HTU21D;63800;51.972;5.682;2023-03-03T09:05:06;4.09;82.91
75217;HTU21D;63800;51.972;5.682;2023-03-03T09:07:32;4.18;82.14
75217;HTU21D;63800;51.972;5.682;2023-03-03T09:09:58;4.23;82.23
75217;HTU21D;63800;51.972;5.682;2023-03-03T09:12:43;4.12;83.11
75217;HTU21D;63800;51.972;5.682;2023-03-03T09:17:47;4.39;82.23
75217;HTU21D;63800;51.972;5.682;2023-03-03T09:23:32;4.69;80.58
75217;HTU21D;63800;51.972;5.682;2023-03-03T09:26:20;4.80;80.93
75217;HTU21D;63800;51.972;5.682;2023-03-03T09:28:46;4.65;80.02
75217;HTU21D;63800;51.972;5.682;2023-03-03T09:31:31;4.68;79.72
75217;HTU21D;63800;51.972;5.682;2023-03-03T09:34:00;4.72;80.67
75217;HTU21D;63800;51.972;5.682;2023-03-03T09:36:29;5.04;78.95
75217;HTU21D;63800;51.972;5.682;2023-03-03T09:38:56;5.19;78.10
75217;HTU21D;63800;51.972;5.682;2023-03-03T09:50:06;5.53;75.19
75217;HTU21D;63800;51.972;5.682;2023-03-03T10:00:43;5.69;75.95
75217;HTU21D;63800;51.972;5.682;2023-03-03T10:03:39;6.11;73.29
75217;HTU21D;63800;51.972;5.682;2023-03-03T10:09:00;6.73;71.64
75217;HTU21D;63800;51.972;5.682;2023-03-03T10:19:43;7.14;69.05
75217;HTU21D;63800;51.972;5.682;2023-03-03T10:25:21;7.59;69.10
75217;HTU21D;63800;51.972;5.682;2023-03-03T10:42:19;9.31;62.23
75217;HTU21D;63800;51.972;5.682;2023-03-03T10:47:45;9.21;62.21
75217;HTU21D;63800;51.972;5.682;2023-03-03T10:55:47;9.90;61.00
75217;HTU21D;63800;51.972;5.682;2023-03-03T11:01:24;9.92;58.35
75217;HTU21D;63800;51.972;5.682;2023-03-03T11:11:58;10.77;55.57
75217;HTU21D;63800;51.972;5.682;2023-03-03T11:15:12;11.47;54.63
75217;HTU21D;63800;51.972;5.682;2023-03-03T11:17:48;12.00;54.20
75217;HTU21D;63800;51.972;5.682;2023-03-03T11:20:35;11.54;55.18
75217;HTU21D;63800;51.972;5.682;2023-03-03T11:25:51;10.74;56.18
75217;HTU21D;63800;51.972;5.682;2023-03-03T11:34:02;11.01;56.31
75217;HTU21D;63800;51.972;5.682;2023-03-03T11:36:35;11.43;54.28
75217;HTU21D;63800;51.972;5.682;2023-03-03T11:39:08;12.91;48.67
75217;HTU21D;63800;51.972;5.682;2023-03-03T11:41:41;12.04;52.14
75217;HTU21D;63800;51.972;5.682;2023-03-03T11:44:28;13.52;47.38
75217;HTU21D;63800;51.972;5.682;2023-03-03T11:50:21;13.19;48.84
75217;HTU21D;63800;51.972;5.682;2023-03-03T11:53:00;12.07;50.73
75217;HTU21D;63800;51.972;5.682;2023-03-03T11:55:35;10.25;56.76
75217;HTU21D;63800;51.972;5.682;2023-03-03T12:00:32;14.42;44.83
75217;HTU21D;63800;51.972;5.682;2023-03-03T12:03:20;15.42;42.62
75217;HTU21D;63800;51.972;5.682;2023-03-03T12:05:56;16.20;40.88
75217;HTU21D;63800;51.972;5.682;2023-03-03T12:11:31;16.86;38.92
75217;HTU21D;63800;51.972;5.682;2023-03-03T12:16:56;21.04;30.44
75217;HTU21D;63800;51.972;5.682;2023-03-03T12:19:39;18.80;34.05
75217;HTU21D;63800;51.972;5.682;2023-03-03T12:22:34;20.87;30.37
75217;HTU21D;63800;51.972;5.682;2023-03-03T12:25:08;18.72;34.32
75217;HTU21D;63800;51.972;5.682;2023-03-03T12:28:12;18.36;35.90
75217;HTU21D;63800;51.972;5.682;2023-03-03T12:30:43;18.48;35.05
75217;HTU21D;63800;51.972;5.682;2023-03-03T12:33:27;19.43;34.12
75217;HTU21D;63800;51.972;5.682;2023-03-03T12:39:04;20.43;31.14
75217;HTU21D;63800;51.972;5.682;2023-03-03T12:41:51;18.42;34.15
75217;HTU21D;63800;51.972;5.682;2023-03-03T12:44:25;16.44;37.72
75217;HTU21D;63800;51.972;5.682;2023-03-03T13:00:30;17.32;36.11
75217;HTU21D;63800;51.972;5.682;2023-03-03T13:03:03;18.46;32.35
75217;HTU21D;63800;51.972;5.682;2023-03-03T13:19:50;12.29;48.38
75217;HTU21D;63800;51.972;5.682;2023-03-03T13:22:26;14.74;43.95
75217;HTU21D;63800;51.972;5.682;2023-03-03T13:25:26;16.61;37.82
75217;HTU21D;63800;51.972;5.682;2023-03-03T13:28:01;18.77;34.11
75217;HTU21D;63800;51.972;5.682;2023-03-03T13:30:32;20.61;30.88
75217;HTU21D;63800;51.972;5.682;2023-03-03T13:33:09;18.80;33.95
75217;HTU21D;63800;51.972;5.682;2023-03-03T13:35:58;19.44;30.68
75217;HTU21D;63800;51.972;5.682;2023-03-03T13:41:50;17.77;35.27
75217;HTU21D;63800;51.972;5.682;2023-03-03T13:44:13;14.53;41.04
75217;HTU21D;63800;51.972;5.682;2023-03-03T13:50:03;12.22;47.73
75217;HTU21D;63800;51.972;5.682;2023-03-03T13:55:57;11.73;48.66
75217;HTU21D;63800;51.972;5.682;2023-03-03T14:01:22;13.56;44.25
75217;HTU21D;63800;51.972;5.682;2023-03-03T14:06:26;16.07;38.29
75217;HTU21D;63800;51.972;5.682;2023-03-03T14:14:35;11.73;47.14
75217;HTU21D;63800;51.972;5.682;2023-03-03T14:19:36;10.53;50.43
75217;HTU21D;63800;51.972;5.682;2023-03-03T14:22:18;10.33;51.11
75217;HTU21D;63800;51.972;5.682;2023-03-03T14:25:03;9.91;52.28
75217;HTU21D;63800;51.972;5.682;2023-03-03T14:27:59;13.14;44.41
75217;HTU21D;63800;51.972;5.682;2023-03-03T14:30:42;14.11;42.57
75217;HTU21D;63800;51.972;5.682;2023-03-03T14:35:37;14.74;42.20
75217;HTU21D;63800;51.972;5.682;2023-03-03T14:40:42;11.92;48.41
75217;HTU21D;63800;51.972;5.682;2023-03-03T14:43:34;10.99;50.27
75217;HTU21D;63800;51.972;5.682;2023-03-03T14:46:32;11.28;51.20
75217;HTU21D;63800;51.972;5.682;2023-03-03T14:49:00;11.28;51.53
75217;HTU21D;63800;51.972;5.682;2023-03-03T14:51:28;11.19;50.96
75217;HTU21D;63800;51.972;5.682;2023-03-03T14:53:56;10.83;51.95
75217;HTU21D;63800;51.972;5.682;2023-03-03T14:56:29;10.62;52.67
75217;HTU21D;63800;51.972;5.682;2023-03-03T14:59:21;10.08;53.43
75217;HTU21D;63800;51.972;5.682;2023-03-03T15:04:32;9.78;55.39
75217;HTU21D;63800;51.972;5.682;2023-03-03T15:06:58;9.94;55.26
75217;HTU21D;63800;51.972;5.682;2023-03-03T15:09:38;9.56;55.84
75217;HTU21D;63800;51.972;5.682;2023-03-03T15:14:52;9.34;55.54
75217;HTU21D;63800;51.972;5.682;2023-03-03T15:17:37;9.24;57.01
75217;HTU21D;63800;51.972;5.682;2023-03-03T15:22:53;8.96;57.31
75217;HTU21D;63800;51.972;5.682;2023-03-03T15:28:25;8.78;56.27
75217;HTU21D;63800;51.972;5.682;2023-03-03T15:36:38;8.45;58.70
75217;HTU21D;63800;51.972;5.682;2023-03-03T15:41:46;8.70;57.77
75217;HTU21D;63800;51.972;5.682;2023-03-03T15:44:58;8.43;58.66
75217;HTU21D;63800;51.972;5.682;2023-03-03T15:50:27;8.53;58.89
75217;HTU21D;63800;51.972;5.682;2023-03-03T15:55:53;8.23;58.58
75217;HTU21D;63800;51.972;5.682;2023-03-03T16:01:13;8.22;58.56
75217;HTU21D;63800;51.972;5.682;2023-03-03T16:03:54;8.11;59.07
75217;HTU21D;63800;51.972;5.682;2023-03-03T16:06:30;8.20;59.02
75217;HTU21D;63800;51.972;5.682;2023-03-03T16:17:25;7.91;60.14
75217;HTU21D;63800;51.972;5.682;2023-03-03T16:20:07;8.12;60.99
75217;HTU21D;63800;51.972;5.682;2023-03-03T16:30:43;7.99;60.98
75217;HTU21D;63800;51.972;5.682;2023-03-03T16:33:29;7.92;60.73
75217;HTU21D;63800;51.972;5.682;2023-03-03T16:39:00;7.52;62.94
75217;HTU21D;63800;51.972;5.682;2023-03-03T16:41:37;7.58;62.33
75217;HTU21D;63800;51.972;5.682;2023-03-03T16:46:44;7.47;62.61
75217;HTU21D;63800;51.972;5.682;2023-03-03T16:52:11;7.27;63.44
75217;HTU21D;63800;51.972;5.682;2023-03-03T16:54:50;7.25;63.24
75217;HTU21D;63800;51.972;5.682;2023-03-03T16:57:22;7.28;63.16
75217;HTU21D;63800;51.972;5.682;2023-03-03T17:00:20;7.17;63.35
75217;HTU21D;63800;51.972;5.682;2023-03-03T17:05:50;7.18;63.06
75217;HTU21D;63800;51.972;5.682;2023-03-03T17:11:40;7.07;63.53
75217;HTU21D;63800;51.972;5.682;2023-03-03T17:17:25;6.91;63.93
75217;HTU21D;63800;51.972;5.682;2023-03-03T17:22:56;6.55;63.85
75217;HTU21D;63800;51.972;5.682;2023-03-03T17:31:03;6.46;64.09
75217;HTU21D;63800;51.972;5.682;2023-03-03T17:39:12;6.54;63.17
75217;HTU21D;63800;51.972;5.682;2023-03-03T17:41:46;6.41;64.07
75217;HTU21D;63800;51.972;5.682;2023-03-03T17:46:56;6.24;64.68
75217;HTU21D;63800;51.972;5.682;2023-03-03T18:00:48;6.24;65.30
75217;HTU21D;63800;51.972;5.682;2023-03-03T18:09:09;6.59;64.38
75217;HTU21D;63800;51.972;5.682;2023-03-03T18:17:48;6.63;65.37
75217;HTU21D;63800;51.972;5.682;2023-03-03T18:23:35;6.73;64.75
75217;HTU21D;63800;51.972;5.682;2023-03-03T18:26:35;6.71;64.76
75217;HTU21D;63800;51.972;5.682;2023-03-03T18:29:19;6.95;63.86
75217;HTU21D;63800;51.972;5.682;2023-03-03T18:39:46;6.63;65.78
75217;HTU21D;63800;51.972;5.682;2023-03-03T18:44:41;6.68;65.80
75217;HTU21D;63800;51.972;5.682;2023-03-03T18:47:08;6.71;65.76
75217;HTU21D;63800;51.972;5.682;2023-03-03T18:52:28;6.54;66.11
75217;HTU21D;63800;51.972;5.682;2023-03-03T18:55:01;6.37;67.12
75217;HTU21D;63800;51.972;5.682;2023-03-03T18:57:29;6.56;66.70
75217;HTU21D;63800;51.972;5.682;2023-03-03T18:59:55;6.67;67.69
75217;HTU21D;63800;51.972;5.682;2023-03-03T19:02:36;6.66;66.69
75217;HTU21D;63800;51.972;5.682;2023-03-03T19:10:54;6.71;66.01
75217;HTU21D;63800;51.972;5.682;2023-03-03T19:13:38;6.68;66.76
75217;HTU21D;63800;51.972;5.682;2023-03-03T19:16:26;6.31;68.08
75217;HTU21D;63800;51.972;5.682;2023-03-03T19:21:24;6.33;67.98
75217;HTU21D;63800;51.972;5.682;2023-03-03T19:24:01;6.30;68.62
75217;HTU21D;63800;51.972;5.682;2023-03-03T19:32:25;6.39;68.33
75217;HTU21D;63800;51.972;5.682;2023-03-03T19:43:41;6.44;68.53
75217;HTU21D;63800;51.972;5.682;2023-03-03T19:48:49;6.33;68.74
75217;HTU21D;63800;51.972;5.682;2023-03-03T19:51:26;6.45;68.42
75217;HTU21D;63800;51.972;5.682;2023-03-03T19:56:53;6.58;68.64
75217;HTU21D;63800;51.972;5.682;2023-03-03T19:59:39;6.41;68.53
75217;HTU21D;63800;51.972;5.682;2023-03-03T20:08:48;6.30;69.06
75217;HTU21D;63800;51.972;5.682;2023-03-03T20:16:35;6.44;68.23
75217;HTU21D;63800;51.972;5.682;2023-03-03T20:22:13;6.40;68.48
75217;HTU21D;63800;51.972;5.682;2023-03-03T20:30:35;6.48;68.83
75217;HTU21D;63800;51.972;5.682;2023-03-03T20:52:40;6.35;69.78
75217;HTU21D;63800;51.972;5.682;2023-03-03T20:58:18;6.27;70.69
75217;HTU21D;63800;51.972;5.682;2023-03-03T21:00:58;6.37;70.40
75217;HTU21D;63800;51.972;5.682;2023-03-03T21:03:32;6.37;70.92
75217;HTU21D;63800;51.972;5.682;2023-03-03T21:08:41;6.37;70.52
75217;HTU21D;63800;51.972;5.682;2023-03-03T21:11:08;6.33;70.84
75217;HTU21D;63800;51.972;5.682;2023-03-03T21:13:36;6.36;70.84
75217;HTU21D;63800;51.972;5.682;2023-03-03T21:16:15;6.34;71.55
75217;HTU21D;63800;51.972;5.682;2023-03-03T21:18:58;6.26;71.77
75217;HTU21D;63800;51.972;5.682;2023-03-03T21:21:25;6.49;70.32
75217;HTU21D;63800;51.972;5.682;2023-03-03T21:23:51;6.29;71.23
75217;HTU21D;63800;51.972;5.682;2023-03-03T21:26:43;6.34;71.10
75217;HTU21D;63800;51.972;5.682;2023-03-03T21:29:25;6.26;71.89
75217;HTU21D;63800;51.972;5.682;2023-03-03T21:31:56;6.29;71.50
75217;HTU21D;63800;51.972;5.682;2023-03-03T21:34:28;6.53;70.13
75217;HTU21D;63800;51.972;5.682;2023-03-03T21:36:56;6.42;71.20
75217;HTU21D;63800;51.972;5.682;2023-03-03T21:42:04;6.37;71.19
75217;HTU21D;63800;51.972;5.682;2023-03-03T21:44:54;6.54;70.00
75217;HTU21D;63800;51.972;5.682;2023-03-03T21:47:22;6.39;71.58
75217;HTU21D;63800;51.972;5.682;2023-03-03T21:49:50;6.30;71.49
75217;HTU21D;63800;51.972;5.682;2023-03-03T21:52:17;6.56;70.26
75217;HTU21D;63800;51.972;5.682;2023-03-03T21:54:45;6.49;70.28
75217;HTU21D;63800;51.972;5.682;2023-03-03T21:57:11;6.44;71.39
75217;HTU21D;63800;51.972;5.682;2023-03-03T21:59:37;6.37;71.02
75217;HTU21D;63800;51.972;5.682;2023-03-03T22:02:03;6.31;72.22
75217;HTU21D;63800;51.972;5.682;2023-03-03T22:04:29;6.27;71.67